KMHS/MHS METAR and TAF weather

Enter ICAO airport designator
Station Type Date Time Source
KMHS METAR 2022/06/27 17:56 UTC NOAA

KMHS 271756Z AUTO 00000KT 10SM CLR 29/05 A3015 RMK AO2 SLP192 T02940050 10300 20111 58002


Station Type Date Time Source
KMHS Decoded METAR 2022/06/27 17:56 UTC NOAA

MOUNT SHASTA, CA, United States (KMHS) 41-19N 122-19W 1078M
Jun 27, 2022 - 01:56 PM EDT / 2022.06.27 1756 UTC
Wind: Calm:0
Visibility: 10 mile(s):0
Sky conditions: clear
Temperature: 84.9 F (29.4 C)
Dew Point: 41.0 F (5.0 C)
Relative Humidity: 21%
Pressure (altimeter): 30.15 in. Hg (1020 hPa)
Pressure tendency: 0.01 inches (0.2 hPa) lower than three hours ago
ob: KMHS 271756Z AUTO 00000KT 10SM CLR 29/05 A3015 RMK AO2 SLP192 T02940050 10300 20111 58002
cycle: 18

Station Type Date Time Source
KMHS TAF UTC NOAA

Error!

Example: see airport list